createdAt,value
2019-03-13T00:00:09.979Z,1.80
2019-03-13T00:01:09.969Z,1.80
2019-03-13T00:02:10.030Z,2.00
2019-03-13T00:03:09.956Z,1.60
2019-03-13T00:04:09.936Z,1.60
2019-03-13T00:05:09.971Z,1.60
2019-03-13T00:06:09.915Z,1.70
2019-03-13T00:07:09.906Z,1.80
2019-03-13T00:08:09.901Z,1.70
2019-03-13T00:09:09.886Z,1.80
2019-03-13T00:10:09.905Z,1.90
2019-03-13T00:11:09.860Z,1.80
2019-03-13T00:12:09.852Z,1.80
2019-03-13T00:13:09.861Z,1.70
2019-03-13T00:14:09.831Z,1.70
2019-03-13T00:15:09.937Z,1.90
2019-03-13T00:16:09.830Z,1.50
2019-03-13T00:17:09.795Z,1.60
2019-03-13T00:18:09.790Z,1.70
2019-03-13T00:19:09.777Z,1.60
2019-03-13T00:20:09.770Z,1.60
2019-03-13T00:21:09.787Z,1.60
2019-03-13T00:22:09.743Z,1.70
2019-03-13T00:23:09.732Z,1.60
2019-03-13T00:24:09.723Z,1.50
2019-03-13T00:25:09.709Z,1.70
2019-03-13T00:26:09.700Z,1.50
2019-03-13T00:27:09.716Z,1.50
2019-03-13T00:28:09.676Z,1.50
2019-03-13T00:29:09.664Z,1.40
2019-03-13T00:30:09.660Z,1.30
2019-03-13T00:31:09.758Z,1.40
2019-03-13T00:32:09.649Z,1.50
2019-03-13T00:33:09.624Z,1.60
2019-03-13T00:34:09.614Z,1.40
2019-03-13T00:35:09.601Z,1.40
2019-03-13T00:36:09.594Z,1.40
2019-03-13T00:37:09.610Z,1.30
2019-03-13T00:38:09.582Z,1.20
2019-03-13T00:39:09.557Z,1.10
2019-03-13T00:40:09.583Z,1.40
2019-03-13T00:41:09.595Z,1.30
2019-03-13T00:42:09.524Z,1.20
2019-03-13T00:43:09.512Z,1.50
2019-03-13T00:44:09.513Z,1.20
2019-03-13T00:45:09.499Z,1.20
2019-03-13T00:46:09.518Z,1.30
2019-03-13T00:47:09.500Z,1.20
2019-03-13T00:48:09.474Z,1.00
2019-03-13T00:49:09.447Z,0.90
2019-03-13T00:50:09.448Z,1.10
2019-03-13T00:51:09.426Z,1.30
2019-03-13T00:52:09.418Z,1.00
2019-03-13T00:53:09.466Z,1.30
2019-03-13T00:54:09.394Z,1.20
2019-03-13T00:55:09.383Z,1.30
2019-03-13T00:56:09.403Z,1.20
2019-03-13T00:57:09.364Z,1.40
2019-03-13T00:58:09.355Z,1.30
2019-03-13T00:59:09.340Z,1.00
2019-03-13T01:00:09.329Z,1.10
2019-03-13T01:01:09.350Z,1.20
2019-03-13T01:02:09.318Z,1.20
2019-03-13T01:03:09.297Z,1.20
2019-03-13T01:04:09.287Z,1.20
2019-03-13T01:05:09.280Z,1.30
2019-03-13T01:06:09.266Z,1.00
2019-03-13T01:07:09.367Z,1.30
2019-03-13T01:08:09.243Z,1.30
2019-03-13T01:09:09.235Z,1.70
2019-03-13T01:10:09.221Z,1.20
2019-03-13T01:11:09.208Z,1.00
2019-03-13T01:12:09.197Z,1.40
2019-03-13T01:13:09.225Z,1.30
2019-03-13T01:14:09.190Z,1.20
2019-03-13T01:15:09.167Z,1.10
2019-03-13T01:16:09.186Z,1.30
2019-03-13T01:17:09.145Z,1.50
2019-03-13T01:18:09.132Z,1.20
2019-03-13T01:19:09.134Z,1.30
2019-03-13T01:20:09.116Z,1.20
2019-03-13T01:21:09.136Z,1.50
2019-03-13T01:22:09.143Z,1.30
2019-03-13T01:23:09.081Z,1.30
2019-03-13T01:24:09.070Z,1.50
2019-03-13T01:25:09.070Z,1.10
2019-03-13T01:26:09.050Z,1.40
2019-03-13T01:27:09.070Z,1.40
2019-03-13T01:28:09.025Z,1.10
2019-03-13T01:29:09.013Z,1.50
2019-03-13T01:30:09.006Z,1.20
2019-03-13T01:31:09.026Z,1.10
2019-03-13T01:32:08.984Z,1.10
2019-03-13T01:33:08.971Z,1.20
2019-03-13T01:34:08.994Z,1.30
2019-03-13T01:35:08.951Z,1.10
2019-03-13T01:36:08.946Z,1.10
2019-03-13T01:37:08.929Z,1.40
2019-03-13T01:38:08.917Z,1.20
2019-03-13T01:39:09.034Z,1.40
2019-03-13T01:40:08.897Z,1.20
2019-03-13T01:41:08.887Z,1.30
2019-03-13T01:42:08.876Z,1.40
2019-03-13T01:43:08.865Z,1.40
2019-03-13T01:44:08.883Z,1.30
2019-03-13T01:45:08.843Z,1.30
2019-03-13T01:46:08.851Z,1.10
2019-03-13T01:47:08.822Z,1.60
2019-03-13T01:48:08.840Z,1.30
2019-03-13T01:49:08.831Z,1.30
2019-03-13T01:50:08.823Z,1.10
2019-03-13T01:51:08.776Z,1.30
2019-03-13T01:52:08.768Z,1.60
2019-03-13T01:53:08.785Z,2.00
2019-03-13T01:54:08.746Z,1.60
2019-03-13T01:55:08.764Z,1.50
2019-03-13T01:56:08.723Z,1.20
2019-03-13T01:57:08.784Z,1.30
2019-03-13T01:58:08.705Z,1.30
2019-03-13T01:59:08.691Z,1.70
2019-03-13T02:00:08.688Z,1.20
2019-03-13T02:01:08.697Z,1.60
2019-03-13T02:02:08.779Z,1.50
2019-03-13T02:03:08.647Z,1.20
2019-03-13T02:04:08.637Z,1.60
2019-03-13T02:05:08.638Z,1.40
2019-03-13T02:06:08.625Z,1.30
2019-03-13T02:07:08.627Z,1.50
2019-03-13T02:08:08.716Z,1.50
2019-03-13T02:09:08.582Z,1.50
2019-03-13T02:10:08.574Z,1.60
2019-03-13T02:11:08.561Z,1.80
2019-03-13T02:12:08.550Z,1.40
2019-03-13T02:13:08.538Z,1.40
2019-03-13T02:14:08.556Z,1.50
2019-03-13T02:15:08.519Z,1.70
2019-03-13T02:16:08.508Z,2.00
2019-03-13T02:17:08.498Z,1.90
2019-03-13T02:18:08.488Z,1.60
2019-03-13T02:19:08.475Z,1.80
2019-03-13T02:20:08.500Z,1.70
2019-03-13T02:21:08.453Z,1.70
2019-03-13T02:22:08.444Z,1.80
2019-03-13T02:23:08.432Z,1.50
2019-03-13T02:24:08.428Z,1.50
2019-03-13T02:25:08.416Z,1.40
2019-03-13T02:26:08.429Z,1.70
2019-03-13T02:27:08.387Z,1.50
2019-03-13T02:28:08.391Z,1.40
2019-03-13T02:29:08.422Z,1.40
2019-03-13T02:30:08.358Z,1.80
2019-03-13T02:31:08.356Z,1.70
2019-03-13T02:32:08.371Z,1.20
2019-03-13T02:33:08.323Z,1.30
2019-03-13T02:34:08.313Z,1.70
2019-03-13T02:35:08.300Z,1.60
2019-03-13T02:36:08.295Z,1.90
2019-03-13T02:37:08.308Z,1.30
2019-03-13T02:38:08.302Z,1.60
2019-03-13T02:39:08.258Z,1.90
2019-03-13T02:40:08.252Z,1.30
2019-03-13T02:41:08.274Z,1.70
2019-03-13T02:42:08.236Z,1.40
2019-03-13T02:43:08.257Z,1.20
2019-03-13T02:44:08.204Z,1.20
2019-03-13T02:45:08.198Z,1.30
2019-03-13T02:46:08.189Z,1.70
2019-03-13T02:47:08.189Z,1.20
2019-03-13T02:48:08.170Z,1.30
2019-03-13T02:49:08.181Z,1.20
2019-03-13T02:50:08.141Z,1.90
2019-03-13T02:51:08.142Z,1.30
2019-03-13T02:52:08.160Z,1.50
2019-03-13T02:53:08.106Z,1.50
2019-03-13T02:54:08.112Z,1.30
2019-03-13T02:55:08.116Z,1.40
2019-03-13T02:56:08.075Z,1.20
2019-03-13T02:57:08.061Z,1.50
2019-03-13T02:58:08.094Z,1.60
2019-03-13T02:59:08.061Z,1.50
2019-03-13T03:00:08.032Z,1.20
2019-03-13T03:01:08.031Z,1.10
2019-03-13T03:02:08.057Z,1.10
2019-03-13T03:03:08.016Z,1.40
2019-03-13T03:04:07.990Z,1.30
2019-03-13T03:05:07.980Z,1.10
2019-03-13T03:06:07.966Z,1.30
2019-03-13T03:07:07.958Z,1.50
2019-03-13T03:08:07.982Z,1.70
2019-03-13T03:09:07.933Z,1.70
2019-03-13T03:10:07.947Z,1.30
2019-03-13T03:11:07.913Z,1.50
2019-03-13T03:12:07.905Z,1.40
2019-03-13T03:13:07.935Z,2.10
2019-03-13T03:14:07.884Z,1.50
2019-03-13T03:15:07.877Z,1.20
2019-03-13T03:16:07.860Z,1.30
2019-03-13T03:17:07.855Z,1.70
2019-03-13T03:18:07.887Z,1.40
2019-03-13T03:19:07.851Z,1.50
2019-03-13T03:20:07.861Z,1.20
2019-03-13T03:21:07.813Z,1.50
2019-03-13T03:22:07.801Z,1.50
2019-03-13T03:23:07.784Z,1.60
2019-03-13T03:24:07.771Z,1.70
2019-03-13T03:25:07.817Z,1.60
2019-03-13T03:26:07.757Z,1.40
2019-03-13T03:27:07.742Z,1.30
2019-03-13T03:28:07.730Z,1.30
2019-03-13T03:29:07.718Z,1.10
2019-03-13T03:30:07.756Z,1.30
2019-03-13T03:31:07.697Z,1.40
2019-03-13T03:32:07.694Z,1.50
2019-03-13T03:33:07.681Z,1.40
2019-03-13T03:34:07.667Z,1.50
2019-03-13T03:35:07.683Z,1.70
2019-03-13T03:36:07.681Z,1.40
2019-03-13T03:37:07.635Z,1.60
2019-03-13T03:38:07.630Z,1.90
2019-03-13T03:39:07.613Z,1.90
2019-03-13T03:40:07.595Z,1.80
2019-03-13T03:41:07.590Z,1.60
2019-03-13T03:42:07.616Z,1.70
2019-03-13T03:43:07.567Z,1.30
2019-03-13T03:44:07.566Z,2.20
2019-03-13T03:45:07.555Z,1.20
2019-03-13T03:46:07.540Z,1.40
2019-03-13T03:47:07.567Z,1.90
2019-03-13T03:48:07.520Z,1.80
2019-03-13T03:49:07.544Z,2.10
2019-03-13T03:50:07.505Z,1.70
2019-03-13T03:51:07.523Z,1.20
2019-03-13T03:52:07.468Z,1.60
2019-03-13T03:53:07.474Z,1.60
2019-03-13T03:54:07.448Z,1.60
2019-03-13T03:55:07.477Z,1.80
2019-03-13T03:56:07.435Z,1.70
2019-03-13T03:57:07.413Z,1.20
2019-03-13T03:58:07.401Z,1.80
2019-03-13T03:59:07.448Z,1.50
2019-03-13T04:00:07.386Z,2.20
2019-03-13T04:01:07.370Z,1.70
2019-03-13T04:02:07.369Z,1.60
2019-03-13T04:03:07.350Z,2.00
2019-03-13T04:04:07.390Z,1.60
2019-03-13T04:05:07.326Z,1.60
2019-03-13T04:06:07.320Z,1.80
2019-03-13T04:07:07.308Z,1.70
2019-03-13T04:08:07.334Z,1.70
2019-03-13T04:09:07.286Z,1.70
2019-03-13T04:10:07.272Z,1.70
2019-03-13T04:11:07.264Z,1.90
2019-03-13T04:12:07.295Z,1.50
2019-03-13T04:13:07.246Z,1.90
2019-03-13T04:14:07.234Z,1.60
2019-03-13T04:15:07.262Z,1.80
2019-03-13T04:16:07.209Z,1.30
2019-03-13T04:17:07.208Z,1.70
2019-03-13T04:18:07.190Z,1.50
2019-03-13T04:19:07.180Z,1.50
2019-03-13T04:20:07.167Z,1.60
2019-03-13T04:21:07.199Z,2.00
2019-03-13T04:22:07.145Z,1.60
2019-03-13T04:23:07.181Z,1.70
2019-03-13T04:24:07.138Z,2.00
2019-03-13T04:25:07.116Z,1.80
2019-03-13T04:26:07.108Z,1.80
2019-03-13T04:27:07.093Z,1.70
2019-03-13T04:28:07.078Z,1.80
2019-03-13T04:29:07.119Z,2.30
2019-03-13T04:30:07.058Z,1.70
2019-03-13T04:31:07.099Z,2.00
2019-03-13T04:32:07.037Z,1.40
2019-03-13T04:33:07.078Z,1.80
2019-03-13T04:34:07.014Z,1.80
2019-03-13T04:35:07.004Z,1.60
2019-03-13T04:36:06.994Z,2.30
2019-03-13T04:37:06.984Z,1.90
2019-03-13T04:38:06.979Z,1.70
2019-03-13T04:39:07.013Z,2.00
2019-03-13T04:40:07.038Z,1.70
2019-03-13T04:41:06.978Z,1.80
2019-03-13T04:42:06.927Z,1.90
2019-03-13T04:43:06.917Z,1.70
2019-03-13T04:44:06.907Z,1.60
2019-03-13T04:45:06.897Z,1.80
2019-03-13T04:46:06.885Z,1.70
2019-03-13T04:47:06.917Z,2.10
2019-03-13T04:48:06.863Z,2.40
2019-03-13T04:49:06.891Z,2.30
2019-03-13T04:50:06.847Z,2.00
2019-03-13T04:51:06.833Z,1.70
2019-03-13T04:52:06.946Z,1.90
2019-03-13T04:53:06.807Z,1.60
2019-03-13T04:54:06.803Z,1.40
2019-03-13T04:55:06.794Z,1.60
2019-03-13T04:56:06.774Z,1.90
2019-03-13T04:57:06.766Z,2.20
2019-03-13T04:58:06.802Z,1.70
2019-03-13T04:59:06.747Z,1.60
2019-03-13T05:00:06.745Z,1.90
2019-03-13T05:01:06.724Z,2.10
2019-03-13T05:02:06.710Z,2.00
2019-03-13T05:03:06.699Z,1.90
2019-03-13T05:04:06.732Z,2.00
2019-03-13T05:05:06.681Z,1.70
2019-03-13T05:06:06.709Z,2.30
2019-03-13T05:07:06.707Z,1.50
2019-03-13T05:08:06.649Z,2.10
2019-03-13T05:09:06.676Z,1.80
2019-03-13T05:10:06.624Z,1.80
2019-03-13T05:11:06.616Z,1.70
2019-03-13T05:12:06.602Z,1.90
2019-03-13T05:13:06.667Z,1.90
2019-03-13T05:14:06.630Z,2.00
2019-03-13T05:15:06.577Z,2.00
2019-03-13T05:16:06.563Z,2.20
2019-03-13T05:17:06.549Z,2.00
2019-03-13T05:18:06.552Z,1.80
2019-03-13T05:19:06.573Z,1.50
2019-03-13T05:20:06.516Z,2.30
2019-03-13T05:21:06.518Z,1.90
2019-03-13T05:22:06.595Z,1.60
2019-03-13T05:23:06.486Z,1.90
2019-03-13T05:24:06.475Z,2.00
2019-03-13T05:25:06.502Z,2.30
2019-03-13T05:26:06.452Z,2.10
2019-03-13T05:27:06.486Z,1.80
2019-03-13T05:28:06.472Z,2.50
2019-03-13T05:29:06.431Z,2.50
2019-03-13T05:30:06.409Z,2.50
2019-03-13T05:31:06.401Z,1.50
2019-03-13T05:32:06.391Z,1.90
2019-03-13T05:33:06.417Z,1.60
2019-03-13T05:34:06.366Z,2.00
2019-03-13T05:35:06.370Z,1.90
2019-03-13T05:36:06.346Z,2.20
2019-03-13T05:37:06.342Z,2.10
2019-03-13T05:38:06.368Z,2.00
2019-03-13T05:39:06.321Z,1.90
2019-03-13T05:40:06.301Z,2.10
2019-03-13T05:41:06.338Z,2.40
2019-03-13T05:42:06.285Z,2.00
2019-03-13T05:43:06.270Z,2.50
2019-03-13T05:44:06.257Z,2.40
2019-03-13T05:45:08.396Z,2.10
2019-03-13T05:46:06.236Z,1.80
2019-03-13T05:47:06.298Z,1.90
2019-03-13T05:48:06.221Z,2.30
2019-03-13T05:49:06.203Z,2.10
2019-03-13T05:50:06.247Z,1.80
2019-03-13T05:51:06.189Z,2.10
2019-03-13T05:52:06.174Z,2.10
2019-03-13T05:53:06.171Z,2.80
2019-03-13T05:54:06.152Z,2.70
2019-03-13T05:55:06.187Z,2.20
2019-03-13T05:56:06.136Z,2.20
2019-03-13T05:57:06.120Z,2.30
2019-03-13T05:58:06.151Z,2.90
2019-03-13T05:59:06.099Z,2.20
2019-03-13T06:00:06.086Z,2.20
2019-03-13T06:01:06.120Z,2.80
2019-03-13T06:02:06.076Z,2.20
2019-03-13T06:03:06.059Z,2.30
2019-03-13T06:04:06.127Z,2.40
2019-03-13T06:05:06.047Z,2.00
2019-03-13T06:06:06.086Z,2.20
2019-03-13T06:07:06.032Z,2.10
2019-03-13T06:08:06.007Z,2.50
2019-03-13T06:09:06.045Z,2.10
2019-03-13T06:10:05.991Z,2.40
2019-03-13T06:11:05.992Z,2.90
2019-03-13T06:12:06.089Z,2.30
2019-03-13T06:13:05.978Z,2.60
2019-03-13T06:14:05.948Z,2.60
2019-03-13T06:15:05.941Z,2.50
2019-03-13T06:16:05.929Z,2.60
2019-03-13T06:17:05.905Z,2.50
2019-03-13T06:18:05.943Z,3.00
2019-03-13T06:19:05.949Z,2.50
2019-03-13T06:20:05.931Z,3.30
2019-03-13T06:21:05.897Z,2.50
2019-03-13T06:22:05.906Z,2.50
2019-03-13T06:23:05.888Z,2.70
2019-03-13T06:24:05.874Z,2.60
2019-03-13T06:25:05.985Z,3.10
2019-03-13T06:26:05.907Z,3.10
2019-03-13T06:27:06.093Z,3.50
2019-03-13T06:28:05.800Z,2.60
2019-03-13T06:29:05.836Z,2.30
2019-03-13T06:30:05.852Z,2.70
2019-03-13T06:31:05.755Z,2.40
2019-03-13T06:32:05.809Z,2.40
2019-03-13T06:33:05.770Z,2.60
2019-03-13T06:34:05.755Z,2.80
2019-03-13T06:35:05.729Z,2.50
2019-03-13T06:36:05.722Z,2.70
2019-03-13T06:37:05.696Z,3.00
2019-03-13T06:38:05.754Z,3.30
2019-03-13T06:39:05.671Z,2.40
2019-03-13T06:40:05.659Z,2.50
2019-03-13T06:41:05.712Z,2.70
2019-03-13T06:42:05.721Z,3.10
2019-03-13T06:43:05.657Z,2.70
2019-03-13T06:44:05.633Z,3.20
2019-03-13T06:45:05.605Z,2.60
2019-03-13T06:46:05.597Z,2.80
2019-03-13T06:47:05.631Z,2.80
2019-03-13T06:48:05.645Z,3.30
2019-03-13T06:49:06.409Z,2.70
2019-03-13T06:50:05.560Z,2.30
2019-03-13T06:51:05.607Z,3.40
2019-03-13T06:52:05.543Z,3.50
2019-03-13T06:53:05.587Z,2.50
2019-03-13T06:54:05.514Z,2.60
2019-03-13T06:55:05.516Z,2.80
2019-03-13T06:56:05.543Z,2.50
2019-03-13T06:57:05.530Z,3.10
2019-03-13T06:58:05.509Z,2.80
2019-03-13T06:59:05.464Z,2.80
2019-03-13T07:00:05.517Z,2.50
2019-03-13T07:01:05.487Z,2.50
2019-03-13T07:02:05.464Z,2.60
2019-03-13T07:03:05.475Z,2.70
2019-03-13T07:04:05.429Z,2.60
2019-03-13T07:05:05.427Z,3.10
2019-03-13T07:06:05.438Z,3.00
2019-03-13T07:07:05.419Z,2.50
2019-03-13T07:08:05.415Z,2.50
2019-03-13T07:09:05.379Z,2.30
2019-03-13T07:10:05.442Z,2.80
2019-03-13T07:11:05.360Z,3.80
2019-03-13T07:12:05.386Z,2.90
2019-03-13T07:13:05.355Z,2.50
2019-03-13T07:14:05.311Z,2.30
2019-03-13T07:15:05.335Z,3.20
2019-03-13T07:16:05.327Z,2.00
2019-03-13T07:17:05.310Z,4.00
2019-03-13T07:18:05.338Z,2.90
2019-03-13T07:19:05.298Z,2.40
2019-03-13T07:20:05.245Z,2.80
2019-03-13T07:21:05.248Z,3.70
2019-03-13T07:22:05.213Z,2.90
2019-03-13T07:23:05.284Z,2.90
2019-03-13T07:24:05.191Z,2.90
2019-03-13T07:25:05.192Z,2.60
2019-03-13T07:26:05.183Z,3.20
2019-03-13T07:27:05.153Z,2.30
2019-03-13T07:28:05.212Z,3.40
2019-03-13T07:29:12.269Z,3.10
2019-03-13T07:30:06.119Z,3.90
2019-03-13T07:31:05.115Z,2.80
2019-03-13T07:32:05.189Z,3.60
2019-03-13T07:33:05.095Z,2.40
2019-03-13T07:34:05.103Z,2.80
2019-03-13T07:35:05.073Z,2.50
2019-03-13T07:36:05.062Z,3.00
2019-03-13T07:37:05.180Z,3.00
2019-03-13T07:38:05.095Z,2.60
2019-03-13T07:39:05.062Z,2.60
2019-03-13T07:40:05.052Z,2.60
2019-03-13T07:41:05.000Z,2.50
2019-03-13T07:42:05.036Z,2.60
2019-03-13T07:43:05.012Z,2.80
2019-03-13T07:44:04.976Z,3.50
2019-03-13T07:45:05.045Z,3.00
2019-03-13T07:46:04.950Z,3.00
2019-03-13T07:47:05.008Z,2.60
2019-03-13T07:48:04.982Z,3.00
2019-03-13T07:49:05.041Z,3.30
2019-03-13T07:50:04.917Z,3.50
2019-03-13T07:51:05.031Z,3.70
2019-03-13T07:52:04.884Z,3.30
2019-03-13T07:53:04.893Z,2.90
2019-03-13T07:54:04.852Z,3.50
2019-03-13T07:55:04.923Z,3.40
2019-03-13T07:56:05.093Z,3.80
2019-03-13T07:57:04.836Z,2.90
2019-03-13T07:58:04.844Z,3.80
2019-03-13T07:59:04.853Z,3.40
2019-03-13T08:00:04.803Z,3.70
2019-03-13T08:01:05.573Z,2.80
2019-03-13T08:02:04.828Z,3.00
2019-03-13T08:03:04.909Z,4.50
2019-03-13T08:04:05.793Z,3.00
2019-03-13T08:05:04.842Z,2.40
2019-03-13T08:06:04.785Z,2.80
2019-03-13T08:07:04.732Z,3.10
2019-03-13T08:08:04.776Z,2.70
2019-03-13T08:09:04.744Z,4.00
2019-03-13T08:10:04.718Z,2.30
2019-03-13T08:11:04.698Z,3.00
2019-03-13T08:12:04.689Z,2.70
2019-03-13T08:13:04.690Z,2.90
2019-03-13T08:14:04.818Z,3.00
2019-03-13T08:15:04.733Z,2.40
2019-03-13T08:16:04.630Z,3.50
2019-03-13T08:17:04.621Z,3.20
2019-03-13T08:18:04.626Z,2.50
2019-03-13T08:19:04.600Z,2.70
2019-03-13T08:20:04.662Z,2.50
2019-03-13T08:21:04.607Z,2.50
2019-03-13T08:22:04.608Z,2.50
2019-03-13T08:23:04.682Z,2.40
2019-03-13T08:24:04.626Z,2.30
2019-03-13T08:25:07.792Z,2.00
2019-03-13T08:26:04.553Z,1.90
2019-03-13T08:27:04.522Z,2.20
2019-03-13T08:28:04.496Z,2.30
2019-03-13T08:29:04.471Z,3.40
2019-03-13T08:30:04.602Z,2.30
2019-03-13T08:31:04.455Z,2.50
2019-03-13T08:32:04.448Z,2.70
2019-03-13T08:33:04.454Z,2.60
2019-03-13T08:34:04.473Z,2.20
2019-03-13T08:35:04.494Z,3.10
2019-03-13T08:36:04.445Z,2.60
2019-03-13T08:37:04.396Z,2.30
2019-03-13T08:38:04.374Z,2.10
2019-03-13T08:39:04.432Z,2.30
2019-03-13T08:40:04.364Z,2.70
2019-03-13T08:41:04.372Z,2.40
2019-03-13T08:42:04.435Z,2.50
2019-03-13T08:43:04.381Z,2.60
2019-03-13T08:44:04.316Z,2.30
2019-03-13T08:45:04.336Z,2.90
2019-03-13T08:46:04.315Z,2.80
2019-03-13T08:47:04.293Z,2.30
2019-03-13T08:48:04.362Z,2.90
2019-03-13T08:49:04.280Z,2.70
2019-03-13T08:50:04.274Z,3.40
2019-03-13T08:51:04.269Z,2.80
2019-03-13T08:52:04.309Z,2.00
2019-03-13T08:53:04.307Z,2.10
2019-03-13T08:54:04.238Z,2.40
2019-03-13T08:55:04.200Z,2.60
2019-03-13T08:56:04.186Z,3.40
2019-03-13T08:57:04.231Z,2.70
2019-03-13T08:58:04.198Z,2.50
2019-03-13T08:59:04.162Z,3.00
2019-03-13T09:00:04.141Z,2.10
2019-03-13T09:01:04.139Z,2.50
2019-03-13T09:02:04.168Z,4.20
2019-03-13T09:03:04.170Z,2.80
2019-03-13T09:04:04.122Z,2.80
2019-03-13T09:05:04.109Z,3.20
2019-03-13T09:06:04.075Z,3.40
2019-03-13T09:07:04.068Z,2.10
2019-03-13T09:08:04.104Z,2.00
2019-03-13T09:09:04.143Z,2.50
2019-03-13T09:10:04.087Z,2.20
2019-03-13T09:11:04.086Z,2.90
2019-03-13T09:12:04.011Z,2.20
2019-03-13T09:13:03.999Z,2.60
2019-03-13T09:14:03.995Z,2.20
2019-03-13T09:15:04.011Z,2.70
2019-03-13T09:16:04.004Z,2.50
2019-03-13T09:17:04.025Z,3.40
2019-03-13T09:18:03.964Z,2.40
2019-03-13T09:19:03.933Z,2.90
2019-03-13T09:20:03.922Z,3.30
2019-03-13T09:21:03.952Z,2.60
2019-03-13T09:22:03.893Z,2.80
2019-03-13T09:23:03.979Z,3.00
2019-03-13T09:24:03.916Z,3.60
2019-03-13T09:25:11.977Z,2.50
2019-03-13T09:26:04.853Z,2.90
2019-03-13T09:27:03.933Z,3.10
2019-03-13T09:28:03.858Z,2.90
2019-03-13T09:29:03.861Z,3.60
2019-03-13T09:30:03.913Z,1.90
2019-03-13T09:31:03.797Z,3.50
2019-03-13T09:32:03.875Z,2.60
2019-03-13T09:33:03.778Z,2.70
2019-03-13T09:34:03.777Z,2.50
2019-03-13T09:35:03.797Z,1.90
2019-03-13T09:36:03.742Z,3.30
2019-03-13T09:37:03.846Z,2.30
2019-03-13T09:38:03.751Z,1.90
2019-03-13T09:39:03.811Z,2.90
2019-03-13T09:40:03.718Z,1.90
2019-03-13T09:41:03.692Z,2.80
2019-03-13T09:42:03.726Z,2.70
2019-03-13T09:43:04.096Z,2.50
2019-03-13T09:44:03.671Z,2.40
2019-03-13T09:45:03.690Z,1.90
2019-03-13T09:46:03.648Z,2.00
2019-03-13T09:47:03.674Z,2.10
2019-03-13T09:48:03.624Z,2.40
2019-03-13T09:49:03.642Z,1.60
2019-03-13T09:50:03.612Z,2.00
2019-03-13T09:51:03.642Z,1.70
2019-03-13T09:52:03.579Z,2.60
2019-03-13T09:53:03.563Z,1.70
2019-03-13T09:54:03.577Z,2.00
2019-03-13T09:55:04.613Z,1.60
2019-03-13T09:56:03.577Z,2.50
2019-03-13T09:57:03.519Z,1.40
2019-03-13T09:58:03.550Z,2.50
2019-03-13T09:59:03.497Z,2.10
2019-03-13T10:00:03.492Z,1.40
2019-03-13T10:01:03.492Z,2.30
2019-03-13T10:02:03.510Z,2.10
2019-03-13T10:03:03.454Z,2.40
2019-03-13T10:04:03.436Z,1.70
2019-03-13T10:05:03.434Z,1.90
2019-03-13T10:06:03.421Z,2.70
2019-03-13T10:07:03.407Z,2.50
2019-03-13T10:08:03.437Z,2.90
2019-03-13T10:09:03.381Z,2.90
2019-03-13T10:10:03.386Z,2.10
2019-03-13T10:11:03.366Z,1.90
2019-03-13T10:12:03.380Z,1.90
2019-03-13T10:13:03.349Z,3.30
2019-03-13T10:14:03.393Z,2.70
2019-03-13T10:15:03.359Z,2.10
2019-03-13T10:16:03.300Z,2.40
2019-03-13T10:17:10.721Z,2.90
2019-03-13T10:18:04.288Z,2.90
2019-03-13T10:19:03.273Z,2.70
2019-03-13T10:20:03.251Z,1.60
2019-03-13T10:21:03.298Z,2.50
2019-03-13T10:22:03.244Z,2.20
2019-03-13T10:23:03.225Z,2.30
2019-03-13T10:24:03.211Z,2.10
2019-03-13T10:25:03.234Z,2.20
2019-03-13T10:26:03.208Z,2.40
2019-03-13T10:27:03.285Z,2.20
2019-03-13T10:28:03.186Z,2.40
2019-03-13T10:29:03.202Z,2.60
2019-03-13T10:30:03.155Z,2.60
2019-03-13T10:31:03.165Z,3.10
2019-03-13T10:32:03.123Z,2.30
2019-03-13T10:33:03.193Z,2.50
2019-03-13T10:34:03.119Z,2.40
2019-03-13T10:35:03.100Z,1.90
2019-03-13T10:36:03.076Z,2.20
2019-03-13T10:37:03.078Z,2.40
2019-03-13T10:38:13.077Z,2.00
2019-03-13T10:39:04.079Z,2.10
2019-03-13T10:40:03.043Z,2.10
2019-03-13T10:41:03.022Z,1.80
2019-03-13T10:42:03.051Z,2.30
2019-03-13T10:43:03.068Z,3.20
2019-03-13T10:44:03.117Z,2.20
2019-03-13T10:45:02.993Z,1.40
2019-03-13T10:46:02.978Z,2.00
2019-03-13T10:47:02.965Z,1.50
2019-03-13T10:48:02.939Z,1.80
2019-03-13T10:49:02.997Z,2.20
2019-03-13T10:50:03.085Z,2.10
2019-03-13T10:51:02.923Z,2.00
2019-03-13T10:52:02.988Z,2.20
2019-03-13T10:53:02.985Z,1.70
2019-03-13T10:54:02.935Z,2.10
2019-03-13T10:55:02.866Z,2.60
2019-03-13T10:56:02.999Z,2.40
2019-03-13T10:57:03.326Z,2.00
2019-03-13T10:58:03.593Z,2.40
2019-03-13T10:59:02.854Z,2.70
2019-03-13T11:00:02.917Z,2.40
2019-03-13T11:01:02.912Z,2.10
2019-03-13T11:02:02.837Z,1.70
2019-03-13T11:03:02.905Z,2.20
2019-03-13T11:04:02.817Z,1.80
2019-03-13T11:05:02.983Z,2.50
2019-03-13T11:06:02.801Z,1.60
2019-03-13T11:07:02.795Z,1.90
2019-03-13T11:08:02.734Z,1.60
2019-03-13T11:09:02.753Z,2.10
2019-03-13T11:10:02.702Z,1.50
2019-03-13T11:11:02.778Z,1.50
2019-03-13T11:12:02.687Z,1.80
2019-03-13T11:13:02.721Z,1.50
2019-03-13T11:14:14.861Z,1.20
2019-03-13T11:15:03.641Z,1.70
2019-03-13T11:16:02.659Z,1.70
2019-03-13T11:17:02.661Z,1.60
2019-03-13T11:18:02.723Z,2.00
2019-03-13T11:19:02.650Z,1.70
2019-03-13T11:20:02.604Z,1.40
2019-03-13T11:21:02.587Z,1.90
2019-03-13T11:22:02.561Z,1.70
2019-03-13T11:23:02.568Z,1.50
2019-03-13T11:24:02.604Z,1.40
2019-03-13T11:25:02.529Z,1.70
2019-03-13T11:26:02.549Z,1.60
2019-03-13T11:27:02.512Z,1.60
2019-03-13T11:28:02.503Z,1.50
2019-03-13T11:29:02.546Z,1.90
2019-03-13T11:30:02.479Z,1.90
2019-03-13T11:31:02.681Z,1.80
2019-03-13T11:32:02.469Z,1.10
2019-03-13T11:33:02.527Z,1.80
2019-03-13T11:34:02.434Z,1.30
2019-03-13T11:35:02.420Z,0.90
2019-03-13T11:36:02.473Z,1.60
2019-03-13T11:37:02.436Z,1.90
2019-03-13T11:38:02.399Z,1.10
2019-03-13T11:39:02.384Z,0.90
2019-03-13T11:40:02.385Z,0.80
2019-03-13T11:41:02.421Z,0.70
2019-03-13T11:42:02.351Z,1.30
2019-03-13T11:43:02.331Z,1.70
2019-03-13T11:44:02.381Z,1.30
2019-03-13T11:45:02.330Z,1.50
2019-03-13T11:46:02.316Z,0.90
2019-03-13T11:47:02.320Z,1.00
2019-03-13T11:48:02.282Z,0.90
2019-03-13T11:49:02.264Z,1.00
2019-03-13T11:50:02.334Z,0.90
2019-03-13T11:51:02.332Z,1.00
2019-03-13T11:52:02.257Z,1.00
2019-03-13T11:53:02.248Z,1.30
2019-03-13T11:54:02.234Z,1.10
2019-03-13T11:55:02.203Z,1.80
2019-03-13T11:56:02.198Z,1.00
2019-03-13T11:57:02.213Z,0.90
2019-03-13T11:58:02.180Z,1.10
2019-03-13T11:59:02.165Z,0.70
2019-03-13T12:00:02.148Z,1.40
2019-03-13T12:01:02.132Z,0.90
2019-03-13T12:02:02.202Z,1.10
2019-03-13T12:03:02.118Z,1.50
2019-03-13T12:04:02.142Z,1.00
2019-03-13T12:05:02.093Z,1.20
2019-03-13T12:06:02.102Z,1.50
2019-03-13T12:07:02.092Z,1.30
2019-03-13T12:08:02.135Z,0.80
2019-03-13T12:09:02.080Z,1.20
2019-03-13T12:10:02.044Z,0.80
2019-03-13T12:11:02.015Z,0.80
2019-03-13T12:12:02.043Z,1.10
2019-03-13T12:13:02.070Z,1.00
2019-03-13T12:14:02.045Z,1.10
2019-03-13T12:15:02.038Z,1.10
2019-03-13T12:16:02.032Z,1.10
2019-03-13T12:17:02.025Z,1.20
2019-03-13T12:18:01.935Z,1.50
2019-03-13T12:19:02.003Z,1.60
2019-03-13T12:20:01.930Z,1.10
2019-03-13T12:21:01.945Z,1.00
2019-03-13T12:22:02.012Z,1.00
2019-03-13T12:23:01.919Z,0.90
2019-03-13T12:24:01.892Z,0.70
2019-03-13T12:25:02.006Z,0.90
2019-03-13T12:26:03.368Z,1.00
2019-03-13T12:27:01.841Z,1.30
2019-03-13T12:28:01.887Z,1.00
2019-03-13T12:29:01.821Z,1.20
2019-03-13T12:30:01.806Z,1.30
2019-03-13T12:31:01.839Z,0.90
2019-03-13T12:32:01.777Z,0.80
2019-03-13T12:33:01.769Z,0.80
2019-03-13T12:34:01.774Z,1.50
2019-03-13T12:35:01.755Z,0.90
2019-03-13T12:36:01.747Z,0.70
2019-03-13T12:37:02.116Z,0.90
2019-03-13T12:38:01.715Z,1.20
2019-03-13T12:39:01.728Z,1.40
2019-03-13T12:40:01.722Z,1.20
2019-03-13T12:41:01.775Z,1.20
2019-03-13T12:42:01.661Z,1.00
2019-03-13T12:43:01.710Z,1.00
2019-03-13T12:44:01.663Z,0.90
2019-03-13T12:45:01.657Z,0.90
2019-03-13T12:46:01.847Z,1.00
2019-03-13T12:47:01.798Z,0.90
2019-03-13T12:48:01.697Z,0.80
2019-03-13T12:49:01.586Z,0.80
2019-03-13T12:50:01.597Z,1.00
2019-03-13T12:51:01.569Z,0.60
2019-03-13T12:52:01.559Z,1.00
2019-03-13T12:53:01.630Z,1.10
2019-03-13T12:54:01.576Z,1.20
2019-03-13T12:55:02.458Z,1.30
2019-03-13T12:56:01.533Z,1.20
2019-03-13T12:57:01.522Z,0.80
2019-03-13T12:58:01.545Z,0.80
2019-03-13T12:59:01.511Z,0.80
2019-03-13T13:00:01.530Z,0.90
2019-03-13T13:01:01.513Z,1.00
2019-03-13T13:02:01.469Z,0.90
2019-03-13T13:03:01.439Z,1.00
2019-03-13T13:04:01.493Z,0.90
2019-03-13T13:05:01.431Z,0.90
2019-03-13T13:06:01.422Z,0.80
2019-03-13T13:07:01.399Z,1.00
2019-03-13T13:08:01.524Z,1.40
2019-03-13T13:09:01.381Z,1.00
2019-03-13T13:10:01.360Z,1.10
2019-03-13T13:11:01.356Z,0.70
2019-03-13T13:12:01.390Z,1.00
2019-03-13T13:13:01.353Z,0.90
2019-03-13T13:14:01.351Z,1.00
2019-03-13T13:15:01.297Z,1.30
2019-03-13T13:16:01.299Z,1.20
2019-03-13T13:17:01.327Z,0.80
2019-03-13T13:18:01.279Z,0.90